Time;durP1;ratioP1;P1;durP2;ratioP2;P2;SDS_P1;SDS_P2;PMS_P1;PMS_P2;Temp;Humidity;BMP_temperature;BMP_pressure;BME280_temperature;BME280_humidity;BME280_pressure;Samples;Min_cycle;Max_cycle;Signal;HPM_P1;HPM_P2
2023/04/30 00:00:19;;;;;;;6.35;5.03;;;;;;;;;;5113589;27;20024;-64
2023/04/30 00:02:45;;;;;;;7.50;6.55;;;;;;;;;;5113950;28;20070;-64
2023/04/30 00:05:11;;;;;;;6.20;5.60;;;;;;;;;;5113390;28;20034;-64
2023/04/30 00:07:41;;;;;;;7.68;5.90;;;;;;;;;;5111845;28;20028;-64
2023/04/30 00:10:07;;;;;;;8.93;5.32;;;;;;;;;;5113161;28;20023;-64
2023/04/30 00:12:33;;;;;;;5.72;5.15;;;;;;;;;;5113471;28;20497;-64
2023/04/30 00:15:00;;;;;;;6.97;6.07;;;;;;;;;;5112953;28;20106;-64
2023/04/30 00:17:26;;;;;;;6.82;5.90;;;;;;;;;;5113830;28;20376;-64
2023/04/30 00:19:52;;;;;;;6.15;5.40;;;;;;;;;;5113237;28;20026;-64
2023/04/30 00:22:18;;;;;;;8.50;6.30;;;;;;;;;;5113113;28;20110;-64
2023/04/30 00:24:44;;;;;;;7.88;6.35;;;;;;;;;;5113270;28;20095;-64
2023/04/30 00:27:10;;;;;;;7.68;5.82;;;;;;;;;;5112917;27;20386;-64
2023/04/30 00:29:36;;;;;;;6.07;5.47;;;;;;;;;;5112282;28;20028;-64
2023/04/30 00:32:03;;;;;;;6.40;5.53;;;;;;;;;;5113156;27;20419;-64
2023/04/30 00:34:29;;;;;;;5.85;5.25;;;;;;;;;;5113389;28;20026;-64
2023/04/30 00:36:55;;;;;;;7.70;5.93;;;;;;;;;;5113357;28;20432;-64
2023/04/30 00:39:21;;;;;;;6.18;5.57;;;;;;;;;;5112798;28;20062;-64
2023/04/30 00:41:47;;;;;;;6.47;5.78;;;;;;;;;;5111555;28;20022;-64
2023/04/30 00:44:13;;;;;;;6.78;6.03;;;;;;;;;;5112059;28;20032;-63
2023/04/30 00:46:39;;;;;;;6.95;6.25;;;;;;;;;;5111928;28;20028;-63
2023/04/30 00:49:05;;;;;;;9.05;5.50;;;;;;;;;;5112682;28;20257;-64
2023/04/30 00:51:32;;;;;;;6.78;6.07;;;;;;;;;;5112798;28;20035;-64
2023/04/30 00:54:01;;;;;;;7.40;5.85;;;;;;;;;;5111428;27;20098;-64
2023/04/30 00:56:28;;;;;;;7.40;5.30;;;;;;;;;;5113134;28;20027;-64
2023/04/30 00:58:56;;;;;;;6.38;5.78;;;;;;;;;;5112599;28;20460;-64
2023/04/30 01:01:27;;;;;;;7.00;5.57;;;;;;;;;;5112489;28;20372;-64
2023/04/30 01:03:53;;;;;;;7.15;5.57;;;;;;;;;;5112689;28;20099;-64
2023/04/30 01:06:19;;;;;;;8.18;6.30;;;;;;;;;;5112168;28;20497;-64
2023/04/30 01:08:46;;;;;;;7.63;5.78;;;;;;;;;;5111213;28;20027;-64
2023/04/30 01:11:22;;;;;;;6.75;5.60;;;;;;;;;;5112048;28;20062;-64
2023/04/30 01:13:51;;;;;;;6.82;6.13;;;;;;;;;;5112217;28;20032;-64
2023/04/30 01:16:17;;;;;;;7.75;6.13;;;;;;;;;;5112106;28;20024;-64
2023/04/30 01:18:46;;;;;;;8.00;6.30;;;;;;;;;;5112309;28;20037;-64
2023/04/30 01:21:13;;;;;;;7.68;6.55;;;;;;;;;;5111759;28;20402;-64
2023/04/30 01:23:42;;;;;;;6.68;5.88;;;;;;;;;;5111861;28;20023;-64
2023/04/30 01:26:08;;;;;;;7.68;6.85;;;;;;;;;;5111451;28;20120;-63
2023/04/30 01:28:35;;;;;;;6.78;5.95;;;;;;;;;;5112124;28;20028;-63
2023/04/30 01:31:01;;;;;;;7.85;6.28;;;;;;;;;;5111729;28;20062;-64
2023/04/30 01:33:27;;;;;;;8.98;6.22;;;;;;;;;;5112306;28;20471;-63
2023/04/30 01:36:12;;;;;;;6.97;6.28;;;;;;;;;;5112056;28;20079;-64
2023/04/30 01:39:00;;;;;;;7.78;5.82;;;;;;;;;;5111998;28;20016;-64
2023/04/30 01:41:34;;;;;;;6.13;5.47;;;;;;;;;;5112049;28;20087;-63
2023/04/30 01:44:24;;;;;;;7.50;6.45;;;;;;;;;;5111391;28;20429;-63
2023/04/30 01:47:10;;;;;;;8.38;6.85;;;;;;;;;;5111439;28;20035;-64
2023/04/30 01:50:12;;;;;;;6.70;6.00;;;;;;;;;;5101101;28;20036;-63
2023/04/30 01:52:40;;;;;;;8.55;6.18;;;;;;;;;;5049144;28;20115;-64
2023/04/30 01:55:13;;;;;;;7.93;6.18;;;;;;;;;;5099284;28;20118;-64
2023/04/30 01:57:42;;;;;;;9.38;7.03;;;;;;;;;;5111709;28;20099;-64
2023/04/30 02:00:11;;;;;;;7.28;6.30;;;;;;;;;;5110931;28;20034;-64
2023/04/30 02:02:37;;;;;;;7.00;6.25;;;;;;;;;;5111511;28;20030;-64
2023/04/30 02:05:03;;;;;;;8.63;6.38;;;;;;;;;;5111515;28;20028;-64
2023/04/30 02:07:42;;;;;;;7.20;6.50;;;;;;;;;;5111837;28;20019;-64
2023/04/30 02:10:09;;;;;;;7.85;6.13;;;;;;;;;;5111177;28;20020;-64
2023/04/30 02:12:35;;;;;;;6.68;5.95;;;;;;;;;;5111259;28;20479;-64
2023/04/30 02:15:02;;;;;;;7.60;5.88;;;;;;;;;;5110842;27;20067;-64
2023/04/30 02:17:28;;;;;;;7.65;6.05;;;;;;;;;;5111560;28;20027;-64
2023/04/30 02:19:53;;;;;;;6.70;5.68;;;;;;;;;;5111128;28;20023;-64
2023/04/30 02:22:19;;;;;;;7.13;6.07;;;;;;;;;;5111102;28;20791;-64
2023/04/30 02:24:45;;;;;;;6.85;6.07;;;;;;;;;;5111264;28;20119;-64
2023/04/30 02:27:11;;;;;;;8.10;6.35;;;;;;;;;;5111059;28;20024;-64
2023/04/30 02:29:37;;;;;;;6.72;5.93;;;;;;;;;;5110799;28;20407;-64
2023/04/30 02:32:03;;;;;;;7.55;5.90;;;;;;;;;;5110876;28;20039;-64
2023/04/30 02:34:29;;;;;;;6.75;5.85;;;;;;;;;;5111567;28;20020;-64
2023/04/30 02:36:55;;;;;;;7.88;6.85;;;;;;;;;;5111468;28;20050;-64
2023/04/30 02:39:21;;;;;;;7.15;6.45;;;;;;;;;;5110932;28;20096;-64
2023/04/30 02:41:47;;;;;;;7.72;6.05;;;;;;;;;;5111005;28;20093;-64
2023/04/30 02:44:13;;;;;;;7.30;6.35;;;;;;;;;;5110297;28;20024;-64
2023/04/30 02:46:39;;;;;;;7.10;6.35;;;;;;;;;;5111119;28;20037;-64
2023/04/30 02:49:05;;;;;;;7.60;6.28;;;;;;;;;;5110904;28;20042;-64
2023/04/30 02:51:31;;;;;;;6.32;5.68;;;;;;;;;;5110933;28;20036;-64
2023/04/30 02:53:57;;;;;;;6.88;6.18;;;;;;;;;;5111154;28;20098;-64
2023/04/30 02:56:24;;;;;;;6.68;5.35;;;;;;;;;;5110782;28;20035;-64
2023/04/30 02:58:50;;;;;;;6.05;5.32;;;;;;;;;;5110682;28;20387;-64
2023/04/30 03:01:17;;;;;;;6.28;5.32;;;;;;;;;;5110554;28;20035;-64
2023/04/30 03:03:43;;;;;;;7.53;6.40;;;;;;;;;;5111049;28;20024;-64
2023/04/30 03:06:08;;;;;;;7.35;5.63;;;;;;;;;;5110714;28;20030;-64
2023/04/30 03:08:34;;;;;;;7.25;5.53;;;;;;;;;;5110922;28;20031;-64
2023/04/30 03:11:00;;;;;;;6.45;5.35;;;;;;;;;;5110540;28;20080;-64
2023/04/30 03:13:26;;;;;;;5.88;5.28;;;;;;;;;;5110721;28;20023;-64
2023/04/30 03:15:59;;;;;;;6.93;6.03;;;;;;;;;;5110776;28;20039;-64
2023/04/30 03:18:26;;;;;;;6.65;5.68;;;;;;;;;;5111117;28;20132;-64
2023/04/30 03:20:52;;;;;;;6.75;6.07;;;;;;;;;;5110657;28;20564;-64
2023/04/30 03:23:18;;;;;;;6.47;5.80;;;;;;;;;;5109287;28;20028;-64
2023/04/30 03:25:44;;;;;;;6.70;5.32;;;;;;;;;;5110757;28;20047;-64
2023/04/30 03:28:10;;;;;;;7.28;6.28;;;;;;;;;;5109655;28;20471;-66
2023/04/30 03:30:36;;;;;;;7.80;6.63;;;;;;;;;;5111230;28;20028;-65
2023/04/30 03:33:02;;;;;;;7.28;5.75;;;;;;;;;;5114216;28;20540;-65
2023/04/30 03:35:28;;;;;;;10.50;6.03;;;;;;;;;;5114642;28;20139;-65
2023/04/30 03:37:54;;;;;;;7.28;6.10;;;;;;;;;;5114371;28;20107;-65
2023/04/30 03:40:20;;;;;;;8.60;5.85;;;;;;;;;;5113972;28;20028;-65
2023/04/30 03:42:46;;;;;;;6.00;5.40;;;;;;;;;;5113195;28;20047;-65
2023/04/30 03:45:12;;;;;;;6.95;5.40;;;;;;;;;;5114102;28;20076;-65
2023/04/30 03:47:38;;;;;;;6.10;5.43;;;;;;;;;;5114142;28;20024;-65
2023/04/30 03:50:05;;;;;;;9.90;6.25;;;;;;;;;;5113870;28;20019;-65
2023/04/30 03:52:32;;;;;;;6.55;5.78;;;;;;;;;;5114031;28;20031;-65
2023/04/30 03:54:58;;;;;;;8.45;6.03;;;;;;;;;;5114228;28;20215;-65
2023/04/30 03:57:24;;;;;;;9.90;6.88;;;;;;;;;;5112685;28;20067;-65
2023/04/30 03:59:50;;;;;;;9.27;6.45;;;;;;;;;;5113891;28;20028;-65
2023/04/30 04:02:16;;;;;;;7.53;6.43;;;;;;;;;;5113626;28;20034;-65
2023/04/30 04:04:42;;;;;;;6.70;5.90;;;;;;;;;;5113707;28;20102;-65
2023/04/30 04:07:10;;;;;;;7.00;6.07;;;;;;;;;;5113571;28;20024;-65
2023/04/30 04:09:36;;;;;;;8.10;6.30;;;;;;;;;;5113480;28;20390;-65
2023/04/30 04:12:02;;;;;;;7.07;5.68;;;;;;;;;;5112706;28;20039;-65
2023/04/30 04:14:28;;;;;;;7.45;6.22;;;;;;;;;;5114051;27;20015;-65
2023/04/30 04:16:54;;;;;;;7.43;6.20;;;;;;;;;;5113562;28;20383;-66
2023/04/30 04:19:21;;;;;;;6.78;5.90;;;;;;;;;;5113289;28;20024;-65
2023/04/30 04:21:47;;;;;;;6.97;6.03;;;;;;;;;;5113245;28;20092;-66
2023/04/30 04:24:14;;;;;;;8.77;4.93;;;;;;;;;;5113022;28;20069;-65
2023/04/30 04:26:40;;;;;;;9.10;6.90;;;;;;;;;;5112580;28;20031;-65
2023/04/30 04:29:09;;;;;;;7.50;6.15;;;;;;;;;;5113165;28;20024;-65
2023/04/30 04:31:35;;;;;;;8.50;6.40;;;;;;;;;;5113167;28;20032;-65
2023/04/30 04:34:03;;;;;;;7.03;5.88;;;;;;;;;;5113012;28;20019;-65
2023/04/30 04:36:29;;;;;;;6.85;5.90;;;;;;;;;;5113445;28;20049;-65
2023/04/30 04:39:01;;;;;;;6.32;5.53;;;;;;;;;;5112513;27;20032;-65
2023/04/30 04:41:28;;;;;;;5.68;5.07;;;;;;;;;;5113382;28;20043;-65
2023/04/30 04:43:55;;;;;;;6.70;5.95;;;;;;;;;;5112922;28;20027;-65
2023/04/30 04:46:22;;;;;;;8.07;6.53;;;;;;;;;;5112781;28;20028;-65
2023/04/30 04:48:48;;;;;;;6.32;5.47;;;;;;;;;;5112946;27;20069;-65
2023/04/30 04:51:14;;;;;;;7.40;5.90;;;;;;;;;;5112501;27;20337;-65
2023/04/30 04:53:40;;;;;;;7.35;5.88;;;;;;;;;;5112330;28;20077;-65
2023/04/30 04:56:06;;;;;;;9.85;5.93;;;;;;;;;;5112573;27;20433;-65
2023/04/30 04:58:32;;;;;;;10.00;6.15;;;;;;;;;;5112769;28;20046;-65
2023/04/30 05:01:03;;;;;;;7.82;6.13;;;;;;;;;;5111866;28;20031;-65
2023/04/30 05:03:30;;;;;;;6.30;5.70;;;;;;;;;;5112839;28;20020;-65
2023/04/30 05:05:56;;;;;;;7.20;6.43;;;;;;;;;;5112872;28;20035;-65
2023/04/30 05:08:22;;;;;;;7.78;5.35;;;;;;;;;;5112309;28;20020;-65
2023/04/30 05:10:48;;;;;;;7.82;5.65;;;;;;;;;;5112387;28;20106;-65
2023/04/30 05:13:14;;;;;;;6.93;5.93;;;;;;;;;;5112269;28;20055;-65
2023/04/30 05:15:40;;;;;;;7.40;5.68;;;;;;;;;;5111944;28;20425;-65
2023/04/30 05:18:06;;;;;;;8.70;5.70;;;;;;;;;;5112111;28;20027;-65
2023/04/30 05:20:32;;;;;;;8.57;6.28;;;;;;;;;;5112206;28;20035;-65
2023/04/30 05:22:58;;;;;;;9.07;5.57;;;;;;;;;;5112561;28;20080;-65
2023/04/30 05:25:24;;;;;;;8.73;5.65;;;;;;;;;;5110900;28;20035;-64
2023/04/30 05:27:50;;;;;;;7.57;5.80;;;;;;;;;;5112171;28;20064;-65
2023/04/30 05:30:16;;;;;;;7.55;6.00;;;;;;;;;;5111690;28;20474;-65
2023/04/30 05:32:42;;;;;;;6.28;5.60;;;;;;;;;;5112110;28;20027;-65
2023/04/30 05:35:08;;;;;;;7.47;5.47;;;;;;;;;;5111770;28;20085;-65
2023/04/30 05:37:34;;;;;;;6.47;5.72;;;;;;;;;;5111840;28;20510;-65
2023/04/30 05:40:00;;;;;;;10.45;6.00;;;;;;;;;;5111064;28;20028;-65
2023/04/30 05:42:26;;;;;;;6.28;5.38;;;;;;;;;;5112324;28;20030;-65
2023/04/30 05:44:52;;;;;;;7.38;6.00;;;;;;;;;;5110948;28;20032;-65
2023/04/30 05:47:18;;;;;;;6.57;5.88;;;;;;;;;;5111711;28;20046;-65
2023/04/30 05:49:44;;;;;;;8.82;6.10;;;;;;;;;;5111677;27;20080;-65
2023/04/30 05:52:10;;;;;;;8.07;6.70;;;;;;;;;;5111410;28;20037;-65
2023/04/30 05:54:36;;;;;;;7.03;6.30;;;;;;;;;;5111273;28;20028;-65
2023/04/30 05:57:02;;;;;;;5.50;4.88;;;;;;;;;;5111465;28;20516;-65
2023/04/30 05:59:28;;;;;;;8.40;5.65;;;;;;;;;;5111543;28;20471;-65
2023/04/30 06:01:54;;;;;;;6.53;5.55;;;;;;;;;;5111296;28;20111;-65
2023/04/30 06:04:20;;;;;;;6.78;5.93;;;;;;;;;;5111357;28;20076;-65
2023/04/30 06:06:46;;;;;;;7.30;6.32;;;;;;;;;;5111692;28;20023;-65
2023/04/30 06:09:12;;;;;;;7.90;6.43;;;;;;;;;;5111559;28;20024;-66
2023/04/30 06:11:38;;;;;;;7.10;6.00;;;;;;;;;;5111549;28;20038;-65
2023/04/30 06:14:06;;;;;;;6.95;5.63;;;;;;;;;;5111413;28;20028;-65
2023/04/30 06:16:32;;;;;;;6.97;6.15;;;;;;;;;;5111009;28;20023;-65
2023/04/30 06:18:58;;;;;;;6.22;5.35;;;;;;;;;;5111724;28;20026;-65
2023/04/30 06:21:26;;;;;;;6.43;5.43;;;;;;;;;;5111077;28;20044;-65
2023/04/30 06:23:53;;;;;;;6.05;5.13;;;;;;;;;;5111301;28;20023;-65
2023/04/30 06:26:19;;;;;;;6.07;5.45;;;;;;;;;;5110830;28;20521;-65
2023/04/30 06:28:45;;;;;;;6.82;5.55;;;;;;;;;;5111083;28;20120;-65
2023/04/30 06:31:12;;;;;;;6.47;5.35;;;;;;;;;;5110911;28;20479;-64
2023/04/30 06:33:38;;;;;;;5.65;4.97;;;;;;;;;;5111175;28;20400;-65
2023/04/30 06:36:04;;;;;;;5.65;5.00;;;;;;;;;;5111109;28;20035;-64
2023/04/30 06:38:30;;;;;;;6.40;5.50;;;;;;;;;;5111444;28;20020;-66
2023/04/30 06:40:57;;;;;;;5.10;4.60;;;;;;;;;;5111452;28;20051;-65
2023/04/30 06:43:23;;;;;;;5.53;4.80;;;;;;;;;;5110621;28;20027;-66
2023/04/30 06:45:49;;;;;;;6.80;4.43;;;;;;;;;;5111186;28;20027;-65
2023/04/30 06:48:15;;;;;;;5.47;4.32;;;;;;;;;;5110956;28;20024;-65
2023/04/30 06:50:44;;;;;;;4.97;4.45;;;;;;;;;;5109444;28;20021;-63
2023/04/30 06:53:13;;;;;;;5.95;4.82;;;;;;;;;;5109683;28;20028;-65
2023/04/30 06:55:40;;;;;;;7.03;4.47;;;;;;;;;;5111080;28;20024;-64
2023/04/30 06:58:06;;;;;;;6.18;4.75;;;;;;;;;;5110934;28;20435;-66
2023/04/30 07:00:33;;;;;;;5.47;4.65;;;;;;;;;;5111066;28;20028;-66
2023/04/30 07:03:03;;;;;;;5.47;4.55;;;;;;;;;;5111438;28;20460;-66
2023/04/30 07:05:30;;;;;;;5.40;3.97;;;;;;;;;;5111192;28;20023;-66
2023/04/30 07:07:56;;;;;;;6.38;4.63;;;;;;;;;;5114702;28;20059;-66
2023/04/30 07:10:22;;;;;;;5.55;4.53;;;;;;;;;;5113423;28;20024;-66
2023/04/30 07:12:48;;;;;;;7.05;4.13;;;;;;;;;;5113763;27;20035;-63
2023/04/30 07:15:14;;;;;;;6.75;4.93;;;;;;;;;;5097428;27;20036;-63
2023/04/30 07:17:40;;;;;;;5.97;4.47;;;;;;;;;;5096899;28;20468;-64
2023/04/30 07:20:07;;;;;;;5.72;4.47;;;;;;;;;;5112577;28;20024;-63
2023/04/30 07:22:33;;;;;;;8.73;4.40;;;;;;;;;;5113341;28;20068;-63
2023/04/30 07:24:59;;;;;;;6.05;4.40;;;;;;;;;;5113463;28;20364;-62
2023/04/30 07:27:27;;;;;;;6.93;4.82;;;;;;;;;;5113444;28;20427;-63
2023/04/30 07:29:53;;;;;;;7.60;4.57;;;;;;;;;;5113011;28;20027;-64
2023/04/30 07:32:19;;;;;;;4.80;3.97;;;;;;;;;;5112920;28;20077;-63
2023/04/30 07:34:45;;;;;;;6.22;4.20;;;;;;;;;;5112635;28;20416;-62
2023/04/30 07:37:12;;;;;;;8.45;4.70;;;;;;;;;;5112486;28;20514;-61
2023/04/30 07:39:38;;;;;;;6.65;4.03;;;;;;;;;;5114140;28;20028;-62
2023/04/30 07:42:04;;;;;;;7.28;4.32;;;;;;;;;;5113792;28;20130;-62
2023/04/30 07:44:31;;;;;;;7.00;4.65;;;;;;;;;;5113007;28;20061;-62
2023/04/30 07:46:57;;;;;;;7.88;4.40;;;;;;;;;;5113097;28;20027;-63
2023/04/30 07:49:23;;;;;;;6.93;4.32;;;;;;;;;;5113210;28;20020;-62
2023/04/30 07:51:48;;;;;;;7.85;4.90;;;;;;;;;;5113806;28;20115;-62
2023/04/30 07:54:14;;;;;;;6.05;4.25;;;;;;;;;;5114113;28;20051;-64
2023/04/30 07:56:41;;;;;;;8.45;5.55;;;;;;;;;;5112616;28;20024;-62
2023/04/30 07:59:07;;;;;;;7.20;4.40;;;;;;;;;;5112072;28;20118;-64
2023/04/30 08:01:33;;;;;;;7.28;4.65;;;;;;;;;;5111985;28;20054;-64
2023/04/30 08:04:00;;;;;;;7.53;4.45;;;;;;;;;;5112697;28;20047;-63
2023/04/30 08:06:29;;;;;;;7.35;4.28;;;;;;;;;;5112802;28;20045;-64
2023/04/30 08:08:55;;;;;;;5.35;4.25;;;;;;;;;;5110620;28;20028;-64
2023/04/30 08:11:21;;;;;;;8.07;4.20;;;;;;;;;;5112042;28;20391;-62
2023/04/30 08:13:47;;;;;;;9.05;4.88;;;;;;;;;;5111780;28;20040;-63
2023/04/30 08:16:13;;;;;;;7.82;4.70;;;;;;;;;;5111570;28;20020;-62
2023/04/30 08:18:43;;;;;;;5.80;4.43;;;;;;;;;;5112026;28;20028;-62
2023/04/30 08:21:09;;;;;;;7.22;4.60;;;;;;;;;;5111796;28;20020;-62
2023/04/30 08:23:35;;;;;;;7.15;4.07;;;;;;;;;;5113163;28;20441;-63
2023/04/30 08:26:01;;;;;;;9.45;4.35;;;;;;;;;;5113278;28;20020;-62
2023/04/30 08:28:27;;;;;;;5.97;3.60;;;;;;;;;;5112387;28;20465;-62
2023/04/30 08:30:53;;;;;;;7.38;4.75;;;;;;;;;;5112822;28;20099;-61
2023/04/30 08:33:19;;;;;;;7.15;4.13;;;;;;;;;;5111360;28;20028;-62
2023/04/30 08:35:45;;;;;;;7.03;4.65;;;;;;;;;;5112081;28;20020;-62
2023/04/30 08:38:11;;;;;;;7.10;3.83;;;;;;;;;;5111420;28;20026;-63
2023/04/30 08:40:37;;;;;;;8.13;4.53;;;;;;;;;;5111626;28;20026;-62
2023/04/30 08:43:07;;;;;;;6.65;4.15;;;;;;;;;;5112540;28;20024;-62
2023/04/30 08:45:33;;;;;;;11.68;4.30;;;;;;;;;;5112574;28;20073;-62
2023/04/30 08:48:00;;;;;;;11.32;3.97;;;;;;;;;;5113243;28;20035;-62
2023/04/30 08:50:26;;;;;;;7.38;3.88;;;;;;;;;;5113007;28;20031;-62
2023/04/30 08:52:52;;;;;;;6.47;4.18;;;;;;;;;;5110955;28;20513;-62
2023/04/30 08:55:18;;;;;;;5.57;3.95;;;;;;;;;;5112109;28;20023;-63
2023/04/30 08:57:44;;;;;;;5.75;4.45;;;;;;;;;;5112936;28;20027;-62
2023/04/30 09:00:11;;;;;;;9.35;4.38;;;;;;;;;;5112212;28;20019;-62
2023/04/30 09:02:41;;;;;;;7.72;4.80;;;;;;;;;;5111600;28;20490;-62
2023/04/30 09:05:10;;;;;;;9.68;4.80;;;;;;;;;;5111589;28;20019;-62
2023/04/30 09:07:36;;;;;;;7.63;4.30;;;;;;;;;;5111020;28;20031;-62
2023/04/30 09:10:03;;;;;;;5.63;4.25;;;;;;;;;;5111779;28;20028;-62
2023/04/30 09:12:29;;;;;;;8.80;4.13;;;;;;;;;;5112806;28;20046;-62
2023/04/30 09:14:58;;;;;;;7.53;4.35;;;;;;;;;;5112842;28;20055;-62
2023/04/30 09:17:25;;;;;;;6.50;4.18;;;;;;;;;;5112318;28;20398;-62
2023/04/30 09:19:51;;;;;;;8.48;4.75;;;;;;;;;;5112124;28;20109;-62
2023/04/30 09:22:21;;;;;;;5.63;3.72;;;;;;;;;;5112059;28;20028;-62
2023/04/30 09:24:48;;;;;;;6.95;4.82;;;;;;;;;;5112467;28;20098;-63
2023/04/30 09:27:32;;;;;;;7.07;3.45;;;;;;;;;;5112134;28;20098;-63
2023/04/30 09:29:58;;;;;;;11.05;4.97;;;;;;;;;;5111964;28;20028;-62
2023/04/30 09:32:24;;;;;;;6.90;4.47;;;;;;;;;;5111880;28;20130;-62
2023/04/30 09:34:50;;;;;;;7.28;4.53;;;;;;;;;;5112093;28;20563;-62
2023/04/30 09:37:16;;;;;;;8.15;3.67;;;;;;;;;;5112045;28;20051;-62
2023/04/30 09:39:49;;;;;;;8.30;4.28;;;;;;;;;;5110833;28;20104;-62
2023/04/30 09:42:16;;;;;;;6.93;4.47;;;;;;;;;;5111871;28;20483;-62
2023/04/30 09:44:42;;;;;;;7.55;4.25;;;;;;;;;;5112022;28;20096;-62
2023/04/30 09:47:15;;;;;;;6.78;4.47;;;;;;;;;;5111841;28;20020;-62
2023/04/30 09:49:43;;;;;;;6.10;3.97;;;;;;;;;;5112017;28;20020;-62
2023/04/30 09:52:09;;;;;;;7.70;3.90;;;;;;;;;;5111495;28;20046;-62
2023/04/30 09:54:35;;;;;;;5.50;3.70;;;;;;;;;;5111970;28;20024;-62
2023/04/30 09:57:02;;;;;;;8.77;4.85;;;;;;;;;;5111674;28;20031;-63
2023/04/30 09:59:34;;;;;;;5.28;4.60;;;;;;;;;;5112097;28;20023;-63
2023/04/30 10:02:00;;;;;;;5.53;4.10;;;;;;;;;;5111921;28;20055;-63
2023/04/30 10:04:28;;;;;;;7.75;6.00;;;;;;;;;;5112182;28;20051;-62
2023/04/30 10:06:57;;;;;;;10.10;3.80;;;;;;;;;;5111750;28;20025;-63
2023/04/30 10:09:24;;;;;;;6.68;4.05;;;;;;;;;;5111513;28;20034;-62
2023/04/30 10:11:50;;;;;;;6.18;4.20;;;;;;;;;;5111615;28;20031;-62
2023/04/30 10:14:18;;;;;;;6.15;4.40;;;;;;;;;;5111470;28;20075;-62
2023/04/30 10:16:54;;;;;;;5.55;4.43;;;;;;;;;;5111779;28;20438;-63
2023/04/30 10:19:24;;;;;;;5.45;4.32;;;;;;;;;;5111324;28;20055;-63
2023/04/30 10:21:51;;;;;;;5.18;4.32;;;;;;;;;;5111400;28;20445;-63
2023/04/30 10:24:18;;;;;;;6.80;4.38;;;;;;;;;;5111179;28;20031;-63
2023/04/30 10:26:44;;;;;;;5.95;3.63;;;;;;;;;;5110115;28;20114;-63
2023/04/30 10:29:11;;;;;;;9.60;4.40;;;;;;;;;;5111230;28;20024;-64
2023/04/30 10:31:38;;;;;;;6.22;4.65;;;;;;;;;;5111429;28;20391;-62
2023/04/30 10:34:04;;;;;;;5.60;4.43;;;;;;;;;;5111297;28;20080;-62
2023/04/30 10:36:43;;;;;;;8.52;4.18;;;;;;;;;;5111452;28;20034;-62
2023/04/30 10:39:10;;;;;;;6.78;4.90;;;;;;;;;;5111156;28;20031;-63
2023/04/30 10:41:36;;;;;;;6.40;4.93;;;;;;;;;;5115453;28;20467;-63
2023/04/30 10:44:04;;;;;;;4.90;4.18;;;;;;;;;;5115323;28;20027;-63
2023/04/30 10:46:30;;;;;;;5.80;4.38;;;;;;;;;;5115682;28;20092;-63
2023/04/30 10:48:56;;;;;;;5.80;4.60;;;;;;;;;;5115773;28;20030;-62
2023/04/30 10:51:22;;;;;;;7.05;5.45;;;;;;;;;;5115088;28;20039;-63
2023/04/30 10:53:52;;;;;;;8.45;6.53;;;;;;;;;;5115441;28;20116;-63
2023/04/30 10:56:31;;;;;;;6.45;5.40;;;;;;;;;;5115111;28;20470;-63
2023/04/30 10:59:01;;;;;;;7.22;5.65;;;;;;;;;;5115625;28;20030;-62
2023/04/30 11:01:27;;;;;;;7.57;6.68;;;;;;;;;;5115512;28;20546;-62
2023/04/30 11:04:07;;;;;;;7.32;5.57;;;;;;;;;;5115169;28;20100;-62
2023/04/30 11:07:08;;;;;;;8.02;5.45;;;;;;;;;;5114979;28;20074;-63
2023/04/30 11:09:38;;;;;;;6.53;4.55;;;;;;;;;;5072338;28;20032;-62
2023/04/30 11:12:09;;;;;;;5.18;4.68;;;;;;;;;;5107013;28;20092;-63
2023/04/30 11:14:39;;;;;;;5.45;3.95;;;;;;;;;;5114917;28;20098;-63
2023/04/30 11:17:05;;;;;;;5.82;4.75;;;;;;;;;;5114914;28;20023;-63
2023/04/30 11:19:33;;;;;;;8.80;4.68;;;;;;;;;;5114822;28;20024;-63
2023/04/30 11:22:05;;;;;;;5.05;3.30;;;;;;;;;;5115080;28;20035;-63
2023/04/30 11:24:50;;;;;;;5.00;3.60;;;;;;;;;;5114779;28;20027;-63
2023/04/30 11:27:23;;;;;;;5.30;3.58;;;;;;;;;;5114489;28;20035;-63
2023/04/30 11:29:51;;;;;;;4.20;3.22;;;;;;;;;;5114810;28;20034;-63
2023/04/30 11:32:18;;;;;;;4.97;3.78;;;;;;;;;;5113125;28;20035;-64
2023/04/30 11:34:44;;;;;;;5.00;3.85;;;;;;;;;;5114594;28;20519;-64
2023/04/30 11:37:13;;;;;;;4.30;2.97;;;;;;;;;;5114489;28;20024;-64
2023/04/30 11:39:39;;;;;;;4.78;3.13;;;;;;;;;;5114587;28;20020;-64
2023/04/30 11:42:07;;;;;;;5.97;3.35;;;;;;;;;;5114261;28;20038;-64
2023/04/30 11:44:33;;;;;;;5.97;3.60;;;;;;;;;;5114582;28;20046;-64
2023/04/30 11:46:59;;;;;;;4.78;3.72;;;;;;;;;;5114686;28;20467;-64
2023/04/30 11:49:26;;;;;;;6.80;3.83;;;;;;;;;;5114706;28;20111;-64
2023/04/30 11:51:52;;;;;;;4.10;3.55;;;;;;;;;;5113433;28;20063;-64
2023/04/30 11:54:18;;;;;;;4.32;3.53;;;;;;;;;;5113838;28;20028;-64
2023/04/30 11:56:47;;;;;;;4.03;3.47;;;;;;;;;;5114374;28;20024;-64
2023/04/30 11:59:14;;;;;;;4.93;3.88;;;;;;;;;;5113944;28;20042;-64
2023/04/30 12:01:40;;;;;;;3.83;3.33;;;;;;;;;;5114124;28;20023;-64
2023/04/30 12:04:07;;;;;;;4.72;3.58;;;;;;;;;;5113838;28;20031;-64
2023/04/30 12:06:34;;;;;;;7.15;4.35;;;;;;;;;;5113821;28;20107;-64
2023/04/30 12:09:03;;;;;;;4.38;3.65;;;;;;;;;;5113627;28;20047;-64
2023/04/30 12:11:30;;;;;;;4.07;3.67;;;;;;;;;;5114250;28;20080;-64
2023/04/30 12:14:09;;;;;;;4.13;3.72;;;;;;;;;;5114120;28;20468;-64
2023/04/30 12:16:49;;;;;;;5.07;4.20;;;;;;;;;;5113732;28;20399;-64
2023/04/30 12:19:16;;;;;;;5.20;3.50;;;;;;;;;;5113720;28;20023;-64
2023/04/30 12:21:46;;;;;;;4.50;3.92;;;;;;;;;;5113353;28;20395;-64
2023/04/30 12:24:15;;;;;;;5.22;3.80;;;;;;;;;;5113193;28;20019;-64
2023/04/30 12:26:42;;;;;;;5.85;3.67;;;;;;;;;;5113568;28;20070;-64
2023/04/30 12:29:09;;;;;;;4.00;3.60;;;;;;;;;;5113471;28;20022;-64
2023/04/30 12:31:36;;;;;;;4.65;3.15;;;;;;;;;;5113405;28;20040;-64
2023/04/30 12:34:05;;;;;;;5.28;4.20;;;;;;;;;;5113088;28;20023;-64
2023/04/30 12:36:32;;;;;;;4.43;3.33;;;;;;;;;;5113488;28;20035;-64
2023/04/30 12:39:08;;;;;;;5.53;3.80;;;;;;;;;;5113666;28;20120;-64
2023/04/30 12:41:41;;;;;;;5.30;4.53;;;;;;;;;;5113308;28;20032;-63
2023/04/30 12:44:20;;;;;;;4.47;3.53;;;;;;;;;;5112856;28;20020;-64
2023/04/30 12:46:50;;;;;;;4.70;3.53;;;;;;;;;;5113403;28;20032;-64
2023/04/30 12:49:28;;;;;;;3.75;3.03;;;;;;;;;;5112898;28;20023;-64
2023/04/30 12:52:14;;;;;;;5.38;3.80;;;;;;;;;;5113009;28;20403;-64
2023/04/30 12:54:40;;;;;;;4.00;3.28;;;;;;;;;;5112853;28;20035;-64
2023/04/30 12:57:07;;;;;;;4.10;2.90;;;;;;;;;;5112823;28;20110;-64
2023/04/30 12:59:34;;;;;;;4.20;3.13;;;;;;;;;;5113038;28;20058;-64
2023/04/30 13:02:13;;;;;;;4.05;2.83;;;;;;;;;;5112802;28;20051;-64
2023/04/30 13:04:43;;;;;;;5.30;3.42;;;;;;;;;;5111743;28;20064;-64
2023/04/30 13:07:09;;;;;;;4.22;3.75;;;;;;;;;;5112530;28;20051;-64
2023/04/30 13:09:36;;;;;;;4.70;3.40;;;;;;;;;;5112489;28;20502;-63
2023/04/30 13:12:03;;;;;;;4.25;3.30;;;;;;;;;;5112460;28;20031;-64
2023/04/30 13:14:29;;;;;;;4.90;3.90;;;;;;;;;;5112993;28;20024;-64
2023/04/30 13:16:55;;;;;;;5.32;4.30;;;;;;;;;;5112940;28;20027;-64
2023/04/30 13:19:21;;;;;;;5.78;4.65;;;;;;;;;;5112305;28;20020;-63
2023/04/30 13:21:47;;;;;;;4.70;3.85;;;;;;;;;;5112057;28;20051;-63
2023/04/30 13:24:13;;;;;;;4.40;3.95;;;;;;;;;;5112137;28;20587;-64
2023/04/30 13:26:39;;;;;;;5.53;4.38;;;;;;;;;;5112496;28;20054;-63
2023/04/30 13:29:06;;;;;;;4.28;3.88;;;;;;;;;;5112082;28;20417;-63
2023/04/30 13:31:32;;;;;;;5.32;4.10;;;;;;;;;;5112273;28;20050;-64
2023/04/30 13:33:58;;;;;;;5.72;4.32;;;;;;;;;;5112531;28;20383;-63
2023/04/30 13:36:24;;;;;;;4.68;4.18;;;;;;;;;;5111998;28;20027;-63
2023/04/30 13:38:50;;;;;;;4.57;4.13;;;;;;;;;;5112207;28;20020;-63
2023/04/30 13:41:16;;;;;;;5.32;4.10;;;;;;;;;;5111933;28;20513;-63
2023/04/30 13:43:43;;;;;;;5.43;4.65;;;;;;;;;;5112226;28;20027;-63
2023/04/30 13:46:09;;;;;;;4.50;3.97;;;;;;;;;;5111757;27;20117;-63
2023/04/30 13:48:35;;;;;;;5.95;5.00;;;;;;;;;;5112089;28;20035;-63
2023/04/30 13:51:01;;;;;;;5.43;4.90;;;;;;;;;;5111690;28;20034;-63
2023/04/30 13:53:27;;;;;;;5.30;4.80;;;;;;;;;;5112510;28;20028;-63
2023/04/30 13:55:54;;;;;;;6.80;4.90;;;;;;;;;;5112089;28;20031;-63
2023/04/30 13:58:20;;;;;;;5.05;4.50;;;;;;;;;;5111756;28;20134;-63
2023/04/30 14:00:46;;;;;;;5.60;4.88;;;;;;;;;;5111831;28;20348;-63
2023/04/30 14:03:12;;;;;;;5.20;4.65;;;;;;;;;;5111580;28;20028;-63
2023/04/30 14:05:39;;;;;;;5.50;4.82;;;;;;;;;;5111912;28;20038;-63
2023/04/30 14:08:05;;;;;;;4.68;4.22;;;;;;;;;;5111583;28;20428;-63
2023/04/30 14:10:31;;;;;;;4.88;4.35;;;;;;;;;;5111874;28;20027;-63
2023/04/30 14:12:57;;;;;;;5.28;4.63;;;;;;;;;;5111965;28;20054;-63
2023/04/30 14:15:23;;;;;;;6.05;4.55;;;;;;;;;;5110884;28;20467;-63
2023/04/30 14:17:50;;;;;;;5.65;4.90;;;;;;;;;;5111594;28;20023;-63
2023/04/30 14:20:16;;;;;;;5.43;4.80;;;;;;;;;;5111092;28;20115;-63
2023/04/30 14:22:43;;;;;;;5.05;4.47;;;;;;;;;;5111539;28;20020;-63
2023/04/30 14:25:09;;;;;;;5.72;4.57;;;;;;;;;;5111386;28;20023;-63
2023/04/30 14:27:35;;;;;;;4.65;4.03;;;;;;;;;;5111616;28;20028;-63
2023/04/30 14:30:02;;;;;;;5.55;4.53;;;;;;;;;;5111290;28;20519;-63
2023/04/30 14:32:28;;;;;;;4.80;4.30;;;;;;;;;;5111667;28;20032;-63
2023/04/30 14:34:54;;;;;;;5.20;4.40;;;;;;;;;;5111394;28;20027;-64
2023/04/30 14:37:21;;;;;;;5.10;4.22;;;;;;;;;;5111273;28;20042;-63
2023/04/30 14:39:47;;;;;;;5.05;4.20;;;;;;;;;;5111433;28;20051;-63
2023/04/30 14:42:13;;;;;;;4.63;4.22;;;;;;;;;;5111152;28;20019;-63
2023/04/30 14:44:39;;;;;;;5.70;4.35;;;;;;;;;;5111295;28;20482;-64